x

Sand Key, Fl (sanf1) Weather Station

1:50am - Fri 12th Feb 2016 All times are CST. -5 hours from GMT.

  • Wind
    14mph, 18mph gusts
  • Air Temp 64°f
  • Sea Pressure 1024.5mb
  • Sand Key, Fl
  • Sand Key, Fl

More Historic Weather Station data

Upgrade to MSW Pro to gain access to the past 30 days of data for over 8000 Wavebouys and Weather Stations around the globe.

Join Pro

Comparision Forecast

View Surf forecast
   
Fri 02/12 1:50am 14 18 mph 1024.5mb 64f
12:50am 14 17 mph 1024.9mb 64f
Thu 02/11 11:50pm 13 16 mph 1025.6mb 64f
10:50pm 11 14 mph 1026.2mb 63f
9:50pm 11 14 mph 1026.1mb 63f
8:50pm 14 16 mph 1026.1mb 63f
7:50pm 15 18 mph 1025.8mb 63f
6:50pm 15 17 mph 1025.4mb 62f
5:50pm 15 20 mph 1025.1mb 62f
4:50pm 11 15 mph 1025.1mb 61f
3:59pm 13 15 mph 1024.9mb 60f
3:54pm 11 15 mph 1024.8mb 60f
3:49pm 14 16 mph 1024.7mb 60f
3:44pm 14 16 mph 1024.7mb 60f
3:39pm 14 16 mph 1024.7mb 60f
3:09pm 15 17 mph 1024.8mb 60f
3:04pm 14 18 mph 1024.8mb 60f
2:59pm 14 18 mph 1024.9mb 60f
2:54pm 15 17 mph 1024.9mb 59f
2:49pm 13 16 mph 1025.1mb 59f
1:50pm 18 21 mph 1025.3mb 59f
12:50pm 17 21 mph 1026.4mb 58f
11:50am 17 22 mph 1027.2mb 59f
10:50am 18 23 mph 1027.4mb 59f
6:50am 13 16 mph 1025.6mb 59f
5:50am 13 16 mph 1025.2mb 60f
4:50am 14 16 mph 1024.8mb 60f
3:50am 14 17 mph 1024.5mb 60f
2:50am 14 17 mph 1024.6mb 60f
1:50am 15 20 mph 1024.9mb 60f
12:50am 17 20 mph 1025.3mb 61f
Wed 02/10 11:50pm 22 25 mph 1025.3mb 62f
10:50pm 11 15 mph 1025.6mb 63f
9:50pm 13 17 mph 1025.3mb 63f
8:50pm 10 14 mph 1025.2mb 62f
7:50pm 9 13 mph 1024.7mb 62f
6:50pm 10 16 mph 1024.4mb 62f
5:50pm 14 16 mph 1023.9mb 62f
4:50pm 13 17 mph 1023.4mb 62f
3:50pm 13 15 mph 1022.9mb 63f
2:50pm 7 10 mph 1022.7mb 63f
1:50pm 8 11 mph 1023.2mb 63f
12:50pm 13 16 mph 1023.5mb 63f
11:50am 16 20 mph 1024.4mb 65f
10:50am 16 18 mph 1024.5mb 66f
9:50am 17 20 mph 1024.4mb 65f
8:50am 17 20 mph 1023.6mb 65f
7:50am 20 23 mph 1022.7mb 65f
6:50am 21 24 mph 1021.9mb 65f
5:50am 21 23 mph 1021.6mb 66f
4:50am 23 28 mph 1020.8mb 66f
3:50am 24 28 mph 1020.2mb 67f
2:50am 24 28 mph 1020.2mb 67f
1:50am 16 20 mph 1020.3mb 68f
12:50am 16 18 mph 1020.3mb 67f
Tue 02/09 11:50pm 18 25 mph 1020.4mb 68f
10:50pm 16 18 mph 1020.7mb 67f
9:50pm 21 23 mph 1020.6mb 67f
8:50pm 21 25 mph 1020.5mb 68f
7:50pm 14 16 mph 1020.3mb 66f
6:50pm 17 22 mph 1019.8mb 66f
5:50pm 18 23 mph 1019.5mb 66f
4:50pm 21 25 mph 1019mb 66f
3:50pm 21 25 mph 1018.6mb 66f
2:50pm 20 24 mph 1018.6mb 66f
1:50pm 20 23 mph 1018.9mb 66f
12:50pm 18 22 mph 1019.7mb 66f
11:50am 20 23 mph 1020.4mb 66f
10:50am 17 21 mph 1020.7mb 66f
9:50am 20 23 mph 1020.6mb 66f
8:50am 23 29 mph 1020mb 67f
7:50am 22 26 mph 1019.3mb 67f
6:50am 29 33 mph 1018.5mb 67f
5:50am 30 36 mph 1017.4mb 70f
4:50am 29 33 mph 1017mb 70f
3:50am 23 29 mph 1016.3mb 70f
2:50am 31 36 mph 1016.2mb 72f
1:50am 28 33 mph 1016.7mb 72f
12:50am 28 32 mph 1017.2mb 71f
Mon 02/08 11:50pm 24 28 mph 1017.6mb 71f
10:50pm 22 25 mph 1018.3mb 69f
9:50pm 20 23 mph 1018.4mb 69f
8:50pm 21 25 mph 1018.4mb 68f
7:50pm 15 17 mph 1018.1mb 68f
6:50pm 16 21 mph 1017.9mb 67f
5:50pm 14 18 mph 1017.8mb 67f
4:50pm 11 14 mph 1017.6mb 67f
3:50pm 8 11 mph 1018.1mb 65f
2:50pm 3 6 mph 1018.7mb 65f
1:50pm  -  2 mph 1019.5mb 64f
12:50pm 1 3 mph 1020.5mb 62f
11:50am 6 8 mph 1021.1mb 61f
10:50am 8 13 mph 1022.2mb 60f
9:50am 11 16 mph 1021.9mb 59f
8:50am 15 18 mph 1021.2mb 59f